Groesbeck, Texas
Current Conditions -  °F | °C
As of 11:15 AM on Wednesday 26 Nov 2014 (Local Time) from KLXY Reporting Station
Clear Clear  
Wind Chill: 60°   Ceiling: Unl
Heat Index: 60°   Visibility: 10mi
Dew Point: 32°   Wind: 16mph
Humidity: 35%   Direction: 240°WSW
Pressure: 30.18"   Gusts: 21mph
Location:  31.52°N, 96.53°W
Report Text: KLXY 261715Z AUTO 24014G18KT 10SM CLR 16/00 A3018 RMK AO2 T01570001
Loading
Personal Weather Stations






























Interactive Weather Map New forecast layout! Learn more

10-Day Weather Forecast

Advertisements
Track Severe Weather on mobile